createdAt,value
2022-09-05T00:02:06.520Z,8.95
2022-09-05T00:07:58.284Z,8.32
2022-09-05T00:13:07.676Z,11.30
2022-09-05T00:21:33.549Z,8.13
2022-09-05T00:24:29.931Z,7.38
2022-09-05T00:31:06.521Z,8.00
2022-09-05T00:35:35.621Z,6.68
2022-09-05T00:40:45.934Z,7.20
2022-09-05T00:45:58.754Z,9.82
2022-09-05T00:51:34.928Z,9.18
2022-09-05T00:57:15.006Z,11.00
2022-09-05T01:02:51.649Z,10.73
2022-09-05T01:08:30.657Z,8.75
2022-09-05T01:13:54.208Z,9.80
2022-09-05T01:19:17.861Z,13.10
2022-09-05T01:24:53.194Z,10.43
2022-09-05T01:30:04.852Z,13.20
2022-09-05T01:35:28.037Z,8.98
2022-09-05T01:40:36.078Z,9.43
2022-09-05T01:45:50.817Z,9.80
2022-09-05T01:51:28.101Z,11.77
2022-09-05T01:56:37.258Z,13.32
2022-09-05T02:01:57.126Z,12.82
2022-09-05T02:07:31.277Z,10.57
2022-09-05T02:12:56.703Z,10.32
2022-09-05T02:18:10.727Z,15.15
2022-09-05T02:23:41.304Z,9.15
2022-09-05T02:29:29.252Z,8.68
2022-09-05T02:34:50.913Z,12.13
2022-09-05T02:45:08.182Z,11.32
2022-09-05T02:45:32.648Z,10.45
2022-09-05T02:57:30.319Z,13.07
2022-09-05T02:57:39.469Z,11.93
2022-09-05T03:02:44.588Z,13.65
2022-09-05T03:08:19.313Z,12.38
2022-09-05T03:13:57.514Z,11.52
2022-09-05T03:19:46.439Z,11.43
2022-09-05T03:25:22.313Z,13.32
2022-09-05T03:30:28.315Z,12.10
2022-09-05T03:36:09.562Z,13.45
2022-09-05T03:41:42.029Z,13.32
2022-09-05T03:47:03.027Z,14.98
2022-09-05T03:57:07.878Z,16.50
2022-09-05T03:58:05.821Z,13.10
2022-09-05T04:08:19.682Z,15.63
2022-09-05T04:08:59.248Z,14.93
2022-09-05T04:14:07.859Z,13.02
2022-09-05T04:19:27.510Z,20.25
2022-09-05T04:24:41.013Z,18.65
2022-09-05T04:29:49.272Z,14.32
2022-09-05T04:35:09.412Z,15.05
2022-09-05T04:40:32.784Z,13.00
2022-09-05T04:45:43.699Z,18.25
2022-09-05T04:51:29.783Z,15.45
2022-09-05T05:05:59.601Z,18.08
2022-09-05T05:07:19.641Z,17.40
2022-09-05T05:17:55.549Z,18.00
2022-09-05T05:18:09.767Z,16.90
2022-09-05T05:23:17.711Z,15.52
2022-09-05T05:28:46.825Z,18.65
2022-09-05T05:33:51.987Z,15.60
2022-09-05T05:39:03.753Z,18.83
2022-09-05T05:44:34.798Z,17.45
2022-09-05T05:49:50.747Z,21.10
2022-09-05T05:55:07.303Z,16.48
2022-09-05T06:00:41.451Z,16.88
2022-09-05T06:06:08.460Z,16.33
2022-09-05T06:14:58.261Z,16.67
2022-09-05T06:17:54.450Z,17.15
2022-09-05T06:23:37.362Z,17.73
2022-09-05T06:29:02.568Z,20.33
2022-09-05T06:34:50.215Z,17.70
2022-09-05T06:39:58.491Z,18.70
2022-09-05T06:45:28.383Z,16.08
2022-09-05T06:51:07.247Z,33.85
2022-09-05T06:56:31.962Z,25.75
2022-09-05T07:02:01.149Z,17.73
2022-09-05T07:07:13.791Z,16.40
2022-09-05T07:12:47.125Z,16.42
2022-09-05T07:18:13.473Z,15.40
2022-09-05T07:23:49.311Z,16.77
2022-09-05T07:28:50.152Z,20.20
2022-09-05T07:34:20.889Z,16.13
2022-09-05T07:39:29.542Z,16.17
2022-09-05T07:44:44.063Z,51.63
2022-09-05T07:50:44.225Z,21.63
2022-09-05T07:57:06.274Z,30.80
2022-09-05T08:00:53.118Z,16.38
2022-09-05T08:05:58.045Z,20.27
2022-09-05T08:11:24.878Z,16.73
2022-09-05T08:16:27.830Z,16.48
2022-09-05T08:21:48.413Z,17.75
2022-09-05T08:27:30.347Z,19.02
2022-09-05T08:33:03.438Z,17.15
2022-09-05T08:38:15.488Z,20.83
2022-09-05T08:46:39.336Z,26.27
2022-09-05T08:49:03.486Z,20.20
2022-09-05T08:54:37.325Z,19.50
2022-09-05T08:59:45.802Z,17.25
2022-09-05T09:05:14.259Z,16.88
2022-09-05T09:10:37.333Z,18.00
2022-09-05T09:15:46.299Z,19.42
2022-09-05T09:20:49.600Z,18.02
2022-09-05T09:26:11.083Z,16.08
2022-09-05T09:31:15.069Z,18.85
2022-09-05T09:36:33.593Z,18.52
2022-09-05T09:41:49.812Z,13.80
2022-09-05T09:46:52.497Z,19.30
2022-09-05T09:52:52.644Z,18.45
2022-09-05T09:58:32.289Z,17.17
2022-09-05T10:09:34.079Z,20.40
2022-09-05T10:10:52.606Z,14.63
2022-09-05T10:15:32.547Z,16.60
2022-09-05T10:20:37.982Z,12.50
2022-09-05T10:26:16.540Z,14.35
2022-09-05T10:33:44.001Z,19.52
2022-09-05T10:36:54.603Z,14.15
2022-09-05T10:42:03.441Z,16.10
2022-09-05T10:47:16.328Z,12.95
2022-09-05T10:52:34.593Z,11.63
2022-09-05T10:57:41.599Z,10.38
2022-09-05T11:02:47.290Z,13.68
2022-09-05T11:07:59.005Z,15.25
2022-09-05T11:13:16.384Z,9.65
2022-09-05T11:18:56.470Z,14.45
2022-09-05T11:24:16.687Z,7.28
2022-09-05T11:29:25.703Z,12.43
2022-09-05T11:39:55.487Z,8.13
2022-09-05T11:41:05.817Z,12.73
2022-09-05T11:46:31.994Z,10.10
2022-09-05T11:51:52.303Z,9.35
2022-09-05T11:57:33.463Z,8.30
2022-09-05T12:02:54.563Z,5.65
2022-09-05T12:08:21.706Z,7.90
2022-09-05T12:13:54.865Z,6.47
2022-09-05T12:19:19.389Z,4.78
2022-09-05T12:25:15.766Z,8.00
2022-09-05T12:30:04.158Z,11.40
2022-09-05T12:36:08.652Z,8.27
2022-09-05T12:41:39.754Z,4.65
2022-09-05T12:46:14.985Z,4.80
2022-09-05T12:51:46.549Z,2.70
2022-09-05T12:58:59.478Z,2.75
2022-09-05T13:03:02.133Z,4.20
2022-09-05T13:07:58.179Z,1.80
2022-09-05T13:14:47.192Z,7.13
2022-09-05T13:18:41.462Z,3.65
2022-09-05T13:24:01.324Z,2.65
2022-09-05T13:29:24.364Z,2.75
2022-09-05T13:38:05.343Z,2.25
2022-09-05T13:40:00.741Z,5.20
2022-09-05T13:45:02.534Z,4.50
2022-09-05T13:50:27.553Z,4.25
2022-09-05T13:55:44.837Z,3.65
2022-09-05T14:01:08.224Z,1.85
2022-09-05T14:06:45.758Z,4.07
2022-09-05T14:12:11.851Z,3.55
2022-09-05T14:22:53.188Z,2.15
2022-09-05T14:28:01.045Z,1.92
2022-09-05T14:37:49.007Z,2.27
2022-09-05T14:39:19.061Z,3.97
2022-09-05T14:44:30.664Z,5.65
2022-09-05T14:49:49.405Z,4.15
2022-09-05T15:02:52.076Z,5.78
2022-09-05T15:05:45.857Z,5.40
2022-09-05T15:12:15.383Z,2.80
2022-09-05T15:16:15.043Z,5.28
2022-09-05T15:21:33.085Z,2.25
2022-09-05T15:26:53.025Z,3.55
2022-09-05T15:32:23.071Z,1.60
2022-09-05T15:37:38.643Z,3.90
2022-09-05T15:42:55.627Z,1.50
2022-09-05T15:48:05.396Z,10.52
2022-09-05T15:53:13.098Z,10.38
2022-09-05T15:58:17.013Z,6.32
2022-09-05T16:05:46.352Z,5.07
2022-09-05T16:10:59.084Z,5.30
2022-09-05T16:14:36.508Z,10.55
2022-09-05T16:23:26.564Z,10.20
2022-09-05T16:25:39.085Z,10.00
2022-09-05T16:30:40.827Z,8.65
2022-09-05T16:36:02.338Z,4.00
2022-09-05T16:41:25.210Z,3.47
2022-09-05T16:46:45.901Z,8.15
2022-09-05T16:51:52.787Z,4.45
2022-09-05T16:57:02.054Z,5.68
2022-09-05T17:02:09.695Z,2.97
2022-09-05T17:07:22.849Z,2.28
2022-09-05T17:12:31.518Z,4.45
2022-09-05T17:18:20.024Z,6.40
2022-09-05T17:25:16.892Z,5.10
2022-09-05T17:29:27.000Z,3.33
2022-09-05T17:34:15.911Z,7.68
2022-09-05T17:39:44.231Z,5.25
2022-09-05T17:45:11.116Z,7.50
2022-09-05T17:50:20.708Z,2.40
2022-09-05T17:55:45.309Z,2.13
2022-09-05T18:00:49.728Z,6.97
2022-09-05T18:05:53.961Z,8.45
2022-09-05T18:11:01.984Z,7.20
2022-09-05T18:16:12.087Z,5.15
2022-09-05T18:21:21.534Z,10.55
2022-09-05T18:26:27.628Z,9.38
2022-09-05T18:31:41.222Z,5.70
2022-09-05T18:36:45.885Z,4.72
2022-09-05T18:42:33.375Z,5.90
2022-09-05T18:47:51.007Z,5.47
2022-09-05T18:53:10.216Z,8.13
2022-09-05T18:58:26.515Z,2.50
2022-09-05T19:03:31.396Z,5.18
2022-09-05T19:08:42.187Z,3.42
2022-09-05T19:13:46.529Z,12.85
2022-09-05T19:19:07.612Z,9.70
2022-09-05T19:24:13.500Z,12.00
2022-09-05T19:36:45.769Z,6.55
2022-09-05T19:37:03.611Z,8.55
2022-09-05T19:47:26.965Z,9.98
2022-09-05T19:47:45.333Z,7.28
2022-09-05T19:50:58.144Z,7.00
2022-09-05T19:56:03.536Z,7.85
2022-09-05T20:01:08.362Z,7.28
2022-09-05T20:06:29.217Z,5.55
2022-09-05T20:11:37.457Z,10.35
2022-09-05T20:16:50.437Z,8.53
2022-09-05T20:21:56.794Z,8.77
2022-09-05T20:26:59.174Z,11.35
2022-09-05T20:32:00.799Z,12.65
2022-09-05T20:43:17.663Z,14.10
2022-09-05T20:54:05.690Z,12.55
2022-09-05T20:54:14.692Z,12.73
2022-09-05T20:58:50.089Z,11.43
2022-09-05T21:03:56.190Z,9.43
2022-09-05T21:09:25.046Z,13.32
2022-09-05T21:14:28.987Z,10.63
2022-09-05T21:19:35.081Z,12.68
2022-09-05T21:24:36.681Z,13.40
2022-09-05T21:29:39.507Z,14.48
2022-09-05T21:34:47.184Z,12.38
2022-09-05T21:39:59.109Z,10.82
2022-09-05T21:47:40.211Z,9.50
2022-09-05T21:50:31.618Z,11.18
2022-09-05T21:59:16.403Z,11.45
2022-09-05T22:00:56.694Z,12.10
2022-09-05T22:05:59.138Z,8.85
2022-09-05T22:11:08.377Z,11.93
2022-09-05T22:16:13.938Z,7.10
2022-09-05T22:21:33.034Z,7.53
2022-09-05T22:26:40.319Z,4.90
2022-09-05T22:31:54.657Z,5.82
2022-09-05T22:36:56.205Z,6.80
2022-09-05T22:41:57.742Z,7.45
2022-09-05T22:46:59.296Z,7.90
2022-09-05T22:52:00.785Z,5.60
2022-09-05T22:57:04.203Z,8.15
2022-09-05T23:02:05.813Z,6.40
2022-09-05T23:07:07.361Z,5.18
2022-09-05T23:12:08.857Z,5.53
2022-09-05T23:17:13.542Z,5.72
2022-09-05T23:22:15.159Z,4.65
2022-09-05T23:27:16.661Z,8.85
2022-09-05T23:32:18.232Z,6.00
2022-09-05T23:37:19.730Z,4.25
2022-09-05T23:42:21.234Z,6.53
2022-09-05T23:47:23.006Z,5.53
2022-09-05T23:52:24.490Z,2.60
2022-09-05T23:57:26.054Z,5.40
